Time;durP1;ratioP1;P1;durP2;ratioP2;P2;SDS_P1;SDS_P2;PMS_P1;PMS_P2;Temp;Humidity;BMP_temperature;BMP_pressure;BME280_temperature;BME280_humidity;BME280_pressure;Samples;Min_cycle;Max_cycle;Signal;HPM_P1;HPM_P2
2021/05/27 00:02:20;;;;;;;4.40;4.10;;;;;;;15.53;100.00;93064.31;4997541;28;20627;-96
2021/05/27 00:04:47;;;;;;;5.57;5.10;;;;;;;15.36;100.00;93049.53;4997281;28;20225;-96
2021/05/27 00:07:15;;;;;;;4.90;4.47;;;;;;;15.55;100.00;92973.00;5004659;28;20196;-96
2021/05/27 00:09:42;;;;;;;4.93;4.50;;;;;;;15.80;100.00;92958.91;4997212;28;20257;-96
2021/05/27 00:12:09;;;;;;;4.50;4.20;;;;;;;15.73;100.00;93003.44;4999959;28;20219;-96
2021/05/27 00:14:36;;;;;;;4.87;4.57;;;;;;;15.72;100.00;93011.63;4998494;28;20584;-96
2021/05/27 00:17:03;;;;;;;5.87;5.37;;;;;;;15.93;100.00;93040.44;5001995;28;20666;-96
2021/05/27 00:19:30;;;;;;;6.27;5.77;;;;;;;15.86;100.00;93078.84;4997134;28;20273;-96
2021/05/27 00:21:57;;;;;;;5.17;4.77;;;;;;;15.76;100.00;93114.09;4996350;28;20203;-96
2021/05/27 00:24:25;;;;;;;6.17;5.63;;;;;;;15.44;100.00;93131.00;4996304;28;20661;-96
2021/05/27 00:26:52;;;;;;;6.23;5.53;;;;;;;15.44;100.00;93056.13;4996097;28;20208;-96
2021/05/27 00:29:19;;;;;;;5.60;5.20;;;;;;;15.77;100.00;93011.63;4996976;28;20213;-96
2021/05/27 00:31:46;;;;;;;5.77;5.37;;;;;;;15.65;100.00;93030.41;4997118;28;20234;-96
2021/05/27 00:36:48;;;;;;;6.40;5.80;;;;;;;15.35;100.00;93020.69;5022523;22;20237;-96
2021/05/27 00:39:15;;;;;;;5.63;5.23;;;;;;;15.38;100.00;93023.59;5020621;28;20236;-96
2021/05/27 00:41:43;;;;;;;5.60;5.07;;;;;;;15.63;100.00;93022.75;5071671;22;20236;-96
2021/05/27 00:44:21;;;;;;;6.57;6.03;;;;;;;15.68;100.00;93043.13;5065959;28;20638;-96
2021/05/27 00:46:48;;;;;;;6.20;5.80;;;;;;;15.44;100.00;93082.59;5063012;28;20207;-96
2021/05/27 00:49:15;;;;;;;6.53;5.23;;;;;;;15.46;100.00;93065.38;5225520;22;20264;-96
2021/05/27 00:51:44;;;;;;;6.20;5.60;;;;;;;15.20;100.00;93064.59;5045893;28;20313;-96
2021/05/27 00:54:11;;;;;;;5.60;5.20;;;;;;;15.22;100.00;93022.03;5047101;28;20209;-96
2021/05/27 00:56:38;;;;;;;5.90;5.40;;;;;;;15.31;100.00;92996.63;5035932;28;20586;-95
2021/05/27 00:59:06;;;;;;;6.53;6.13;;;;;;;15.41;100.00;92959.56;5036173;28;20205;-96
2021/05/27 01:01:33;;;;;;;7.87;7.27;;;;;;;15.37;100.00;92937.31;5090003;22;20239;-96
2021/05/27 01:04:00;;;;;;;6.83;6.20;;;;;;;15.27;100.00;92904.81;5039070;28;20206;-96
2021/05/27 01:06:27;;;;;;;7.77;7.17;;;;;;;15.27;100.00;92857.19;5045539;28;20200;-96
2021/05/27 01:08:55;;;;;;;7.00;6.50;;;;;;;15.30;100.00;92830.19;5045609;28;20206;-96
2021/05/27 01:11:22;;;;;;;6.97;6.47;;;;;;;15.34;100.00;92800.25;5038924;28;20200;-95
2021/05/27 01:13:49;;;;;;;5.80;5.40;;;;;;;15.18;100.00;92798.78;5037576;28;20195;-96
2021/05/27 01:16:18;;;;;;;6.43;5.83;;;;;;;14.92;100.00;92814.72;5037321;28;20201;-96
2021/05/27 01:18:46;;;;;;;6.23;5.83;;;;;;;14.91;100.00;92810.50;5041424;28;20212;-96
2021/05/27 01:27:42;;;;;;;5.50;5.10;;;;;;;14.53;100.00;92843.63;5017536;28;20175;-96
2021/05/27 01:30:11;;;;;;;5.77;5.27;;;;;;;14.54;100.00;92812.72;5021450;28;20185;-96
2021/05/27 01:32:38;;;;;;;11.37;7.60;;;;;;;14.40;100.00;92807.94;5015637;28;20250;-95
2021/05/27 01:35:07;;;;;;;9.17;6.97;;;;;;;14.49;100.00;92777.28;5015697;28;20296;-96
2021/05/27 01:37:37;;;;;;;8.20;7.43;;;;;;;14.72;100.00;92736.28;5015858;28;20206;-96
2021/05/27 01:40:05;;;;;;;8.33;6.90;;;;;;;14.90;100.00;92729.59;5016032;28;20224;-96
2021/05/27 01:42:32;;;;;;;8.00;7.30;;;;;;;14.75;100.00;92750.81;5016515;28;20197;-96
2021/05/27 01:45:00;;;;;;;10.37;7.93;;;;;;;14.43;100.00;92802.13;5017223;28;20213;-95
2021/05/27 01:47:27;;;;;;;9.50;8.70;;;;;;;14.44;100.00;92779.13;5025188;28;20193;-96
2021/05/27 01:49:54;;;;;;;9.03;8.13;;;;;;;14.25;100.00;92755.16;5067631;22;20246;-96
2021/05/27 01:52:22;;;;;;;10.23;9.00;;;;;;;14.14;100.00;92712.13;5054664;28;20235;-96
2021/05/27 02:05:23;;;;;;;8.23;7.60;;;;;;;14.79;100.00;92526.38;5318808;22;20262;-96
2021/05/27 02:11:14;;;;;;;7.00;6.30;;;;;;;14.49;100.00;92684.03;5248505;22;20325;-96
2021/05/27 02:13:41;;;;;;;7.17;6.57;;;;;;;14.60;100.00;92727.88;5084267;22;20242;-96
2021/05/27 02:18:45;;;;;;;7.00;6.03;;;;;;;14.32;100.00;92805.84;5169679;22;20231;-96
2021/05/27 02:24:01;;;;;;;8.10;7.40;;;;;;;14.15;100.00;92814.03;4992017;28;20371;-96
2021/05/27 02:26:29;;;;;;;8.33;7.50;;;;;;;14.22;100.00;92803.22;4994595;28;20648;-95
2021/05/27 02:28:56;;;;;;;8.63;7.73;;;;;;;14.36;100.00;92780.47;4993982;28;20569;-96
2021/05/27 02:31:24;;;;;;;8.47;7.77;;;;;;;14.33;100.00;92773.09;4993901;28;20200;-96
2021/05/27 02:33:51;;;;;;;8.30;7.60;;;;;;;14.31;100.00;92763.84;4994589;28;20197;-96
2021/05/27 02:36:18;;;;;;;10.43;8.23;;;;;;;14.40;100.00;92725.25;4996349;28;20216;-95
2021/05/27 02:38:45;;;;;;;9.07;8.17;;;;;;;14.66;100.00;92703.00;4996839;28;20201;-96
2021/05/27 02:41:13;;;;;;;19.53;17.53;;;;;;;14.56;100.00;92765.69;4996043;28;20224;-96
2021/05/27 02:43:40;;;;;;;28.03;20.33;;;;;;;14.56;100.00;92832.53;4996282;28;20206;-95
2021/05/27 02:46:07;;;;;;;16.90;11.57;;;;;;;14.40;100.00;92875.84;4994940;28;20208;-96
2021/05/27 02:48:34;;;;;;;9.67;8.80;;;;;;;14.23;100.00;92886.66;4995788;28;20263;-96
2021/05/27 02:53:36;;;;;;;12.13;11.03;;;;;;;14.50;100.00;92847.59;5921146;22;20336;-96
2021/05/27 02:56:04;;;;;;;9.33;8.33;;;;;;;13.94;100.00;92894.31;5055552;28;20197;-96
2021/05/27 02:58:32;;;;;;;12.00;9.07;;;;;;;14.03;100.00;92868.97;5040712;28;20202;-96
2021/05/27 03:13:56;;;;;;;11.67;10.67;;;;;;;14.17;100.00;92888.53;5218901;22;20242;-96
2021/05/27 03:16:23;;;;;;;9.50;8.60;;;;;;;14.04;100.00;92924.16;5058757;28;20210;-96
2021/05/27 03:18:51;;;;;;;10.33;9.43;;;;;;;13.86;100.00;92926.50;5058463;28;20176;-96
2021/05/27 03:21:18;;;;;;;9.87;9.07;;;;;;;14.06;100.00;92886.91;5423491;22;20238;-96
2021/05/27 03:37:20;;;;;;;9.50;8.60;;;;;;;14.30;100.00;92858.13;5686544;23;20488;-96
2021/05/27 03:42:31;;;;;;;7.47;6.77;;;;;;;14.16;100.00;92798.97;4999189;28;20284;-96
2021/05/27 03:45:02;;;;;;;8.30;7.60;;;;;;;14.49;100.00;92742.94;4996814;28;20200;-96
2021/05/27 03:47:29;;;;;;;6.83;6.30;;;;;;;14.82;100.00;92709.00;4979944;28;20679;-96
2021/05/27 03:49:56;;;;;;;7.43;6.83;;;;;;;14.61;100.00;92753.22;4998365;28;20208;-96
2021/05/27 03:52:23;;;;;;;7.20;6.60;;;;;;;14.14;100.00;92823.03;5000943;28;20362;-96
2021/05/27 03:54:50;;;;;;;7.10;6.50;;;;;;;14.10;100.00;92855.47;4998321;28;20193;-96
2021/05/27 03:57:16;;;;;;;8.40;7.00;;;;;;;14.03;100.00;92868.97;4996373;28;20688;-94
2021/05/27 04:02:35;;;;;;;6.63;6.13;;;;;;;14.50;100.00;92794.75;4985847;28;20193;-96
2021/05/27 04:07:46;;;;;;;5.47;4.97;;;;;;;14.80;100.00;92797.59;4995772;28;20263;-96
2021/05/27 04:10:13;;;;;;;5.27;4.87;;;;;;;14.83;100.00;92824.28;4996482;28;20197;-96
2021/05/27 04:12:46;;;;;;;10.40;8.80;;;;;;;14.88;100.00;92834.03;4995778;28;20694;-96
2021/05/27 04:15:22;;;;;;;8.37;7.70;;;;;;;14.90;100.00;92845.94;5003889;28;20230;-96
2021/05/27 04:17:54;;;;;;;6.83;6.23;;;;;;;14.98;100.00;92841.94;5246158;23;20240;-96
2021/05/27 04:20:22;;;;;;;7.50;6.87;;;;;;;15.20;100.00;92818.59;5010862;28;20207;-96
2021/05/27 04:22:49;;;;;;;7.40;6.70;;;;;;;15.30;100.00;92843.41;5014857;28;20204;-96
2021/05/27 04:25:17;;;;;;;9.30;8.20;;;;;;;15.25;100.00;92883.94;5009605;28;20224;-96
2021/05/27 04:27:45;;;;;;;16.77;11.50;;;;;;;15.46;100.00;92896.00;5011554;28;20198;-96
2021/05/27 04:30:14;;;;;;;9.90;8.23;;;;;;;15.42;100.00;92947.91;5011916;28;20209;-96
2021/05/27 04:32:56;;;;;;;6.70;6.10;;;;;;;15.30;100.00;93026.75;5012552;28;20285;-96
2021/05/27 04:35:26;;;;;;;6.97;6.23;;;;;;;15.22;100.00;93070.44;5015376;28;20644;-96
2021/05/27 04:37:53;;;;;;;7.57;6.90;;;;;;;14.96;100.00;93111.97;5016699;28;20189;-96
2021/05/27 04:40:21;;;;;;;7.00;6.40;;;;;;;15.14;100.00;93089.50;5013702;28;20221;-96
2021/05/27 04:42:48;;;;;;;8.77;6.23;;;;;;;15.43;100.00;93050.03;5014969;28;20190;-96
2021/05/27 04:45:15;;;;;;;6.83;6.23;;;;;;;15.52;100.00;93050.31;5015795;28;20216;-96
2021/05/27 04:47:43;;;;;;;6.17;5.57;;;;;;;15.54;100.00;93093.16;5017371;28;20192;-96
2021/05/27 04:52:57;;;;;;;6.77;5.70;;;;;;;15.76;100.00;93176.81;5088338;22;20238;-96
2021/05/27 04:55:24;;;;;;;5.33;4.93;;;;;;;15.65;100.00;93273.97;5012078;28;20194;-96
2021/05/27 04:57:53;;;;;;;7.03;6.37;;;;;;;15.67;100.00;93354.75;5012573;28;20200;-96
2021/05/27 05:00:22;;;;;;;6.13;5.53;;;;;;;15.75;100.00;93377.28;5003778;28;20231;-96
2021/05/27 05:02:49;;;;;;;5.37;4.97;;;;;;;15.88;100.00;93368.84;5001165;28;20196;-96
2021/05/27 05:05:16;;;;;;;4.73;4.33;;;;;;;16.06;100.00;93380.78;5012018;28;20195;-96
2021/05/27 05:07:46;;;;;;;7.63;3.63;;;;;;;16.09;100.00;93427.16;5015366;28;20199;-96
2021/05/27 05:10:15;;;;;;;4.00;3.07;;;;;;;16.21;100.00;93504.56;5070596;23;20210;-96
2021/05/27 05:12:45;;;;;;;3.13;2.93;;;;;;;16.26;100.00;93596.53;5008605;28;20237;-96
2021/05/27 05:15:15;;;;;;;4.27;3.70;;;;;;;16.22;100.00;93685.56;4995698;28;20184;-96
2021/05/27 05:17:43;;;;;;;3.70;3.40;;;;;;;16.32;100.00;93749.25;4994665;28;20194;-95
2021/05/27 05:20:11;;;;;;;4.37;3.13;;;;;;;16.42;100.00;93826.19;4995033;28;20229;-94
2021/05/27 05:22:38;;;;;;;3.83;3.47;;;;;;;16.45;100.00;93939.66;4994575;28;20269;-94
2021/05/27 05:25:06;;;;;;;2.93;2.73;;;;;;;16.43;100.00;94031.91;4994388;28;20312;-93
2021/05/27 05:27:35;;;;;;;3.90;3.60;;;;;;;16.51;100.00;94075.72;4994412;28;20203;-93
2021/05/27 05:30:01;;;;;;;4.13;3.73;;;;;;;16.38;100.00;94132.59;4994276;28;20199;-91
2021/05/27 05:32:28;;;;;;;4.30;3.97;;;;;;;16.26;100.00;94145.97;4994275;28;20215;-91
2021/05/27 05:34:55;;;;;;;4.40;4.03;;;;;;;16.39;100.00;94142.97;4994395;28;20234;-91
2021/05/27 05:37:22;;;;;;;3.73;3.50;;;;;;;16.42;100.00;94146.97;4994499;28;20204;-91
2021/05/27 05:39:49;;;;;;;19.67;16.00;;;;;;;16.80;100.00;94140.81;4994034;28;20223;-95
2021/05/27 05:42:16;;;;;;;8.90;8.00;;;;;;;16.84;100.00;94168.44;4994353;28;20266;-94
2021/05/27 05:44:44;;;;;;;3.53;3.33;;;;;;;16.83;100.00;94211.94;4994357;28;20257;-91
2021/05/27 05:47:10;;;;;;;3.50;3.30;;;;;;;16.90;100.00;94221.53;4994359;28;20672;-94
2021/05/27 05:49:37;;;;;;;3.33;3.13;;;;;;;16.76;100.00;94245.78;4994243;28;20206;-94
2021/05/27 05:52:13;;;;;;;4.17;3.43;;;;;;;16.63;100.00;94273.47;4994009;28;20199;-93
2021/05/27 05:54:40;;;;;;;2.70;2.50;;;;;;;16.51;100.00;94287.88;4993842;28;20207;-90
2021/05/27 05:57:07;;;;;;;4.73;3.10;;;;;;;16.71;100.00;94309.38;4993790;28;20236;-93
2021/05/27 05:59:34;;;;;;;3.10;2.80;;;;;;;16.85;100.00;94313.31;4993811;28;20206;-94
2021/05/27 06:02:03;;;;;;;3.50;3.20;;;;;;;16.76;100.00;94320.06;4993665;28;20206;-95
2021/05/27 06:04:31;;;;;;;3.10;2.90;;;;;;;16.57;100.00;94293.00;4995466;28;20281;-92
2021/05/27 06:06:58;;;;;;;4.37;3.63;;;;;;;16.84;100.00;94234.75;4993725;28;20192;-92
2021/05/27 06:09:25;;;;;;;3.87;3.53;;;;;;;17.05;100.00;94189.91;4993780;28;20231;-95
2021/05/27 06:11:52;;;;;;;3.83;3.53;;;;;;;17.29;100.00;94151.38;4994188;28;20564;-92
2021/05/27 06:14:19;;;;;;;3.47;3.23;;;;;;;17.79;100.00;94136.91;4994474;28;20192;-96
2021/05/27 06:16:47;;;;;;;4.33;3.37;;;;;;;18.06;100.00;94174.03;4993753;28;20669;-95
2021/05/27 06:19:15;;;;;;;4.33;3.43;;;;;;;18.25;100.00;94229.44;4994014;28;20212;-95
2021/05/27 06:21:42;;;;;;;3.03;2.83;;;;;;;18.65;100.00;94273.34;4993680;28;20223;-96
2021/05/27 06:24:10;;;;;;;4.57;3.37;;;;;;;19.19;100.00;94331.69;4993754;28;20203;-94
2021/05/27 06:26:37;;;;;;;4.10;3.67;;;;;;;19.30;100.00;94420.44;4993805;28;20212;-92
2021/05/27 06:29:04;;;;;;;3.30;3.10;;;;;;;18.90;100.00;94498.94;4993347;28;20684;-89
2021/05/27 06:31:31;;;;;;;3.50;3.20;;;;;;;18.81;100.00;94538.56;4993547;28;20586;-92
2021/05/27 06:33:58;;;;;;;3.10;2.90;;;;;;;18.85;100.00;94578.78;4993704;28;20223;-91
2021/05/27 06:36:26;;;;;;;3.33;2.93;;;;;;;18.63;100.00;94639.97;4993498;28;20200;-92
2021/05/27 06:38:53;;;;;;;5.03;2.60;;;;;;;18.71;100.00;94661.66;4993370;28;20212;-93
2021/05/27 06:41:20;;;;;;;5.93;2.47;;;;;;;18.58;100.00;94687.81;4993322;28;20727;-93
2021/05/27 06:43:47;;;;;;;2.60;2.40;;;;;;;18.44;100.00;94677.53;4993348;28;20200;-93
2021/05/27 06:46:14;;;;;;;3.67;3.37;;;;;;;18.59;100.00;94655.63;4993527;28;20196;-93
2021/05/27 06:48:41;;;;;;;3.03;2.73;;;;;;;18.60;100.00;94633.31;4994341;28;20661;-96
2021/05/27 06:51:08;;;;;;;2.20;2.10;;;;;;;18.57;100.00;94636.47;4998752;28;20208;-96
2021/05/27 06:53:39;;;;;;;2.50;2.40;;;;;;;18.68;100.00;94640.03;5265236;22;20231;-96
2021/05/27 06:56:06;;;;;;;3.37;2.30;;;;;;;18.48;100.00;94644.06;4993585;28;20627;-95
2021/05/27 06:58:34;;;;;;;2.60;2.40;;;;;;;18.36;100.00;94643.38;4993256;28;20200;-90
2021/05/27 07:01:02;;;;;;;3.30;2.53;;;;;;;18.32;100.00;94657.41;4994319;28;20271;-95
2021/05/27 07:03:28;;;;;;;2.93;2.73;;;;;;;18.43;100.00;94644.00;5034798;23;20580;-91
2021/05/27 07:05:57;;;;;;;2.77;2.57;;;;;;;18.27;100.00;94635.00;4993087;28;20201;-91
2021/05/27 07:08:26;;;;;;;5.93;3.10;;;;;;;19.13;100.00;94583.03;4993395;28;20203;-93
2021/05/27 07:10:54;;;;;;;3.73;3.20;;;;;;;19.32;100.00;94565.59;4993104;28;20196;-90
2021/05/27 07:13:21;;;;;;;2.90;2.70;;;;;;;19.26;100.00;94563.97;4993519;28;20239;-90
2021/05/27 07:15:48;;;;;;;3.13;2.70;;;;;;;19.88;100.00;94575.84;5018359;22;20318;-90
2021/05/27 07:18:15;;;;;;;3.33;3.00;;;;;;;20.38;100.00;94609.22;4993083;28;20226;-91
2021/05/27 07:20:42;;;;;;;2.70;2.50;;;;;;;20.64;100.00;94679.53;4992932;28;20223;-88
2021/05/27 07:23:10;;;;;;;11.17;6.83;;;;;;;21.08;100.00;94712.00;4993017;28;20259;-88
2021/05/27 07:25:37;;;;;;;3.17;2.83;;;;;;;20.92;100.00;94753.09;4993234;28;20201;-89
2021/05/27 07:28:05;;;;;;;2.67;2.47;;;;;;;20.59;100.00;94759.59;4993192;28;20196;-96
2021/05/27 07:30:33;;;;;;;3.17;2.50;;;;;;;20.45;100.00;94756.53;4992823;28;20204;-89
2021/05/27 07:33:00;;;;;;;3.93;3.30;;;;;;;19.79;100.00;94785.34;4992913;28;20258;-91
2021/05/27 07:35:28;;;;;;;3.43;3.13;;;;;;;19.67;100.00;94802.31;4993206;28;20200;-91
2021/05/27 07:37:56;;;;;;;8.13;5.77;;;;;;;19.47;100.00;94770.09;4992868;28;20202;-91
2021/05/27 07:40:23;;;;;;;8.47;7.30;;;;;;;19.53;100.00;94730.94;4992718;28;20220;-93
2021/05/27 07:42:50;;;;;;;6.90;6.27;;;;;;;19.58;100.00;94691.03;4995922;28;20216;-90
2021/05/27 07:45:18;;;;;;;8.43;3.90;;;;;;;19.59;100.00;94648.13;4996442;28;20211;-93
2021/05/27 07:47:46;;;;;;;2.93;2.73;;;;;;;19.53;100.00;94648.34;4996264;28;20201;-89
2021/05/27 07:50:13;;;;;;;3.90;3.47;;;;;;;19.12;100.00;94655.97;4996533;28;20204;-90
2021/05/27 07:52:40;;;;;;;3.00;2.80;;;;;;;18.99;100.00;94641.22;4996124;28;20229;-90
2021/05/27 07:55:08;;;;;;;3.27;2.97;;;;;;;18.79;100.00;94635.66;4996414;28;20232;-88
2021/05/27 07:57:35;;;;;;;4.63;3.97;;;;;;;18.20;100.00;94634.38;4996092;28;20239;-89
2021/05/27 08:00:02;;;;;;;4.63;4.30;;;;;;;18.19;100.00;94606.19;4995800;28;20709;-87
2021/05/27 08:02:29;;;;;;;7.07;5.27;;;;;;;18.25;100.00;94572.47;4995887;28;20205;-90
2021/05/27 08:04:56;;;;;;;3.93;3.63;;;;;;;18.34;100.00;94549.72;4995820;28;20208;-91
2021/05/27 08:07:23;;;;;;;4.10;3.80;;;;;;;18.25;100.00;94538.75;4996160;28;20204;-91
2021/05/27 08:09:50;;;;;;;4.97;4.53;;;;;;;18.23;100.00;94527.53;4995960;28;20208;-90
2021/05/27 08:12:17;;;;;;;5.13;4.70;;;;;;;17.87;100.00;94514.84;4996025;28;20203;-91
2021/05/27 08:14:46;;;;;;;5.13;4.60;;;;;;;18.02;100.00;94478.66;4996208;28;20207;-93
2021/05/27 08:17:13;;;;;;;6.30;5.70;;;;;;;18.12;100.00;94437.28;4995542;28;20240;-91
2021/05/27 08:19:41;;;;;;;6.27;5.80;;;;;;;17.96;100.00;94399.88;4995584;28;20200;-90
2021/05/27 08:22:09;;;;;;;7.17;6.47;;;;;;;18.32;100.00;94231.88;4995912;28;20204;-90
2021/05/27 08:24:37;;;;;;;8.07;7.27;;;;;;;19.13;100.00;94130.34;4995404;28;20203;-87
2021/05/27 08:27:04;;;;;;;7.87;7.03;;;;;;;19.61;100.00;94070.44;4998373;28;20660;-89
2021/05/27 08:29:31;;;;;;;7.83;5.97;;;;;;;19.85;100.00;94092.03;4995568;28;20721;-88
2021/05/27 08:31:58;;;;;;;9.07;6.47;;;;;;;20.11;100.00;94139.97;4995290;28;20223;-89
2021/05/27 08:34:25;;;;;;;4.60;4.30;;;;;;;20.67;100.00;94113.91;4997344;28;20242;-96
2021/05/27 08:36:53;;;;;;;6.70;5.27;;;;;;;20.66;100.00;94172.91;4996794;28;20196;-95
2021/05/27 08:39:20;;;;;;;5.50;5.00;;;;;;;20.24;100.00;94278.09;4998094;28;20243;-96
2021/05/27 08:41:57;;;;;;;;;;;;;;;;;;;;;
2021/05/27 08:44:25;;;;;;;5.13;4.73;;;;;;;19.96;100.00;94292.75;5001036;28;20199;-96
2021/05/27 08:46:52;;;;;;;7.73;6.37;;;;;;;20.16;100.00;94273.31;4996883;28;20243;-96
2021/05/27 08:49:20;;;;;;;5.23;4.93;;;;;;;20.32;100.00;94231.41;4997356;28;20214;-96
2021/05/27 08:51:47;;;;;;;6.10;5.57;;;;;;;20.28;100.00;94239.16;5000279;28;20262;-96
2021/05/27 08:54:15;;;;;;;7.90;7.10;;;;;;;20.56;100.00;94240.47;4999408;28;20196;-96
2021/05/27 08:56:42;;;;;;;6.53;5.97;;;;;;;20.97;100.00;94255.59;5001273;28;20192;-96
2021/05/27 08:59:09;;;;;;;6.60;5.67;;;;;;;20.62;100.00;94337.34;5002151;28;20207;-96
2021/05/27 09:01:56;;;;;;;6.70;5.90;;;;;;;20.38;100.00;94415.22;4997592;28;20224;-96
2021/05/27 09:04:23;;;;;;;6.50;5.90;;;;;;;20.25;100.00;94462.97;4997544;28;20200;-96
2021/05/27 09:06:51;;;;;;;6.37;5.20;;;;;;;20.69;100.00;94433.19;5001866;28;20573;-96
2021/05/27 09:09:19;;;;;;;5.33;4.93;;;;;;;20.41;100.00;94451.25;4999615;28;20200;-91
2021/05/27 09:11:47;;;;;;;5.90;5.30;;;;;;;20.48;100.00;94449.13;4994943;28;20196;-91
2021/05/27 09:14:14;;;;;;;5.50;5.10;;;;;;;20.47;100.00;94438.72;4994885;28;20197;-87
2021/05/27 09:16:56;;;;;;;6.23;5.63;;;;;;;20.49;100.00;94434.72;4995868;28;20255;-94
2021/05/27 09:24:57;;;;;;;6.23;5.73;;;;;;;20.44;100.00;94496.09;5212636;22;20287;-95
2021/05/27 09:27:46;;;;;;;8.47;7.37;;;;;;;20.52;100.00;94492.94;5356985;22;20209;31
2021/05/27 09:30:15;;;;;;;6.67;5.80;;;;;;;20.38;100.00;94521.16;5219710;22;20590;-96
2021/05/27 09:32:53;;;;;;;6.73;6.13;;;;;;;20.09;100.00;94560.78;5308615;22;20216;-96
2021/05/27 09:35:22;;;;;;;7.73;7.03;;;;;;;19.89;100.00;94574.81;5330347;23;20239;-96
2021/05/27 09:37:55;;;;;;;9.00;7.93;;;;;;;19.94;100.00;94553.50;5001001;28;20200;-95
2021/05/27 09:43:06;;;;;;;9.83;8.87;;;;;;;19.80;100.00;94521.16;5393863;23;21147;-96
2021/05/27 09:56:37;;;;;;;6.93;6.00;;;;;;;19.15;100.00;94477.84;5304689;23;20232;-96
2021/05/27 10:09:39;;;;;;;5.27;4.87;;;;;;;18.68;100.00;94294.91;6125884;23;20402;-95
2021/05/27 10:24:57;;;;;;;6.33;5.70;;;;;;;18.53;100.00;94244.25;5004658;28;20224;-96
2021/05/27 10:27:24;;;;;;;6.03;5.40;;;;;;;18.50;100.00;94226.19;5005763;28;20203;-96
2021/05/27 10:29:52;;;;;;;6.97;6.27;;;;;;;18.54;100.00;94192.66;5002897;28;20196;-96
2021/05/27 10:32:20;;;;;;;7.00;6.10;;;;;;;18.41;100.00;94148.72;5004833;28;20212;-96
2021/05/27 10:34:50;;;;;;;43.53;30.33;;;;;;;18.51;100.00;94084.13;5006749;28;20192;-96
2021/05/27 10:37:58;;;;;;;9.50;8.50;;;;;;;18.52;100.00;94008.56;5007094;28;20239;-96
2021/05/27 10:40:43;;;;;;;5.60;5.17;;;;;;;18.42;100.00;93973.97;4989287;28;20207;-96
2021/05/27 10:46:10;;;;;;;4.93;4.20;;;;;;;17.88;100.00;94041.59;5089239;23;20271;-96
2021/05/27 10:48:42;;;;;;;4.53;4.23;;;;;;;17.97;100.00;94012.66;5048832;28;20253;-96
2021/05/27 10:51:16;;;;;;;4.67;4.27;;;;;;;17.77;100.00;94046.06;5038571;28;20212;-96
2021/05/27 10:53:50;;;;;;;4.63;4.23;;;;;;;17.82;100.00;94085.94;5034409;28;20203;-96
2021/05/27 10:56:19;;;;;;;4.90;4.43;;;;;;;17.96;100.00;94062.34;5033319;28;20195;-96
2021/05/27 10:59:10;;;;;;;4.27;3.87;;;;;;;18.23;100.00;94056.91;5032602;28;20201;-95
2021/05/27 11:01:54;;;;;;;4.50;4.03;;;;;;;18.40;100.00;94079.84;5032569;28;20211;-96
2021/05/27 11:04:27;;;;;;;5.00;4.27;;;;;;;18.44;100.00;94126.91;5033265;28;20584;-95
2021/05/27 11:07:28;;;;;;;5.10;4.57;;;;;;;18.72;100.00;94197.56;5032756;28;20198;-96
2021/05/27 11:09:59;;;;;;;4.33;4.03;;;;;;;18.82;100.00;94238.59;5033433;28;20272;-96
2021/05/27 11:12:29;;;;;;;4.77;4.17;;;;;;;18.82;100.00;94270.53;5033360;28;20227;-96
2021/05/27 11:15:15;;;;;;;4.77;4.37;;;;;;;18.69;100.00;94322.31;5033556;28;20365;-96
2021/05/27 11:17:43;;;;;;;4.60;4.20;;;;;;;18.67;100.00;94383.78;5037063;28;20705;-96
2021/05/27 11:20:18;;;;;;;4.87;4.37;;;;;;;18.94;100.00;94406.88;5036245;28;20203;-96
2021/05/27 11:22:56;;;;;;;4.80;4.40;;;;;;;19.20;100.00;94413.19;5037380;28;20194;-96
2021/05/27 11:25:29;;;;;;;4.33;3.93;;;;;;;19.09;100.00;94430.97;5037740;28;20248;-96
2021/05/27 11:28:18;;;;;;;4.87;4.40;;;;;;;19.17;100.00;94462.41;5036722;28;20211;-96
2021/05/27 11:30:52;;;;;;;4.60;4.17;;;;;;;19.33;100.00;94486.47;5036585;28;20221;-96
2021/05/27 11:33:46;;;;;;;4.30;3.97;;;;;;;19.51;100.00;94519.91;5036640;28;20202;-96
2021/05/27 11:36:26;;;;;;;16.47;4.00;;;;;;;19.52;100.00;94540.97;5037341;28;20625;-96
2021/05/27 11:38:55;;;;;;;4.03;3.70;;;;;;;19.83;100.00;94559.84;5036995;28;20206;-96
2021/05/27 11:41:23;;;;;;;5.27;3.53;;;;;;;19.75;100.00;94595.00;5038981;28;20223;-96
2021/05/27 11:43:56;;;;;;;3.53;3.23;;;;;;;19.84;100.00;94615.56;5038636;28;20234;-96
2021/05/27 11:46:27;;;;;;;4.47;3.80;;;;;;;19.70;100.00;94644.53;5049256;28;20286;-96
2021/05/27 11:48:58;;;;;;;4.00;3.60;;;;;;;19.57;100.00;94660.09;5043726;28;20209;-96
2021/05/27 11:51:28;;;;;;;4.00;3.67;;;;;;;19.47;100.00;94700.81;5043687;28;20209;-96
2021/05/27 11:53:58;;;;;;;4.23;3.20;;;;;;;19.58;100.00;94733.69;5042403;28;20199;-96
2021/05/27 11:56:41;;;;;;;6.30;2.50;;;;;;;19.47;100.00;94741.56;5040085;28;20202;-96
2021/05/27 11:59:11;;;;;;;12.60;8.53;;;;;;;19.54;100.00;94712.06;5040881;28;20199;-96
2021/05/27 12:01:39;;;;;;;11.43;8.63;;;;;;;19.60;100.00;94689.72;5038977;28;20222;-96
2021/05/27 12:04:09;;;;;;;15.67;8.97;;;;;;;19.59;100.00;94671.31;5043196;28;20202;-96
2021/05/27 12:06:50;;;;;;;16.33;11.20;;;;;;;19.60;100.00;94662.25;5042791;28;20197;-96
2021/05/27 12:09:29;;;;;;;5.50;4.70;;;;;;;19.58;100.00;94657.19;5037804;28;20673;-96
2021/05/27 12:11:58;;;;;;;3.43;3.13;;;;;;;19.67;100.00;94636.22;5036943;28;20197;-96
2021/05/27 12:14:26;;;;;;;8.77;7.27;;;;;;;19.78;100.00;94624.59;5039765;28;20269;-96
2021/05/27 12:16:54;;;;;;;9.87;8.23;;;;;;;20.04;100.00;94612.22;5043413;28;20189;-96
2021/05/27 12:19:22;;;;;;;8.80;5.83;;;;;;;20.10;100.00;94587.19;5046014;28;20199;-96
2021/05/27 12:21:55;;;;;;;9.73;5.87;;;;;;;20.04;100.00;94561.56;5113205;23;20236;-96
2021/05/27 12:24:26;;;;;;;6.17;3.73;;;;;;;19.93;100.00;94558.03;5016658;28;20206;-96
2021/05/27 12:26:53;;;;;;;4.90;3.50;;;;;;;19.80;100.00;94566.50;5015036;28;20208;-96
2021/05/27 12:29:21;;;;;;;4.33;3.43;;;;;;;19.84;100.00;94572.09;5009089;28;20272;-95
2021/05/27 12:31:50;;;;;;;6.50;3.00;;;;;;;20.07;100.00;94578.91;4996678;28;20665;-94
2021/05/27 12:34:19;;;;;;;3.37;3.10;;;;;;;20.16;100.00;94574.69;4995820;28;20592;-95
2021/05/27 12:36:54;;;;;;;9.40;3.50;;;;;;;20.43;100.00;94595.88;4996220;28;20653;-87
2021/05/27 12:39:32;;;;;;;3.80;2.97;;;;;;;20.52;100.00;94605.03;4995296;28;20199;-93
2021/05/27 12:42:00;;;;;;;3.30;3.00;;;;;;;20.82;100.00;94625.69;4995096;28;20224;-87
2021/05/27 12:44:37;;;;;;;3.30;3.00;;;;;;;21.20;100.00;94631.66;4995218;28;20200;-88
2021/05/27 12:47:18;;;;;;;3.53;3.00;;;;;;;21.31;100.00;94669.88;4995060;28;20184;-90
2021/05/27 12:49:46;;;;;;;5.03;2.93;;;;;;;21.34;100.00;94698.78;4995618;28;20208;-94
2021/05/27 12:52:13;;;;;;;6.20;2.87;;;;;;;21.59;100.00;94725.53;4995397;28;20207;-90
2021/05/27 12:54:40;;;;;;;3.87;2.40;;;;;;;21.49;100.00;94835.13;4995383;28;20201;-90
2021/05/27 12:57:09;;;;;;;6.67;2.87;;;;;;;21.60;100.00;94881.41;4995341;28;20200;-91
2021/05/27 12:59:38;;;;;;;3.40;3.10;;;;;;;21.73;100.00;94878.25;4995110;28;20583;-90
2021/05/27 13:02:09;;;;;;;2.80;2.60;;;;;;;22.07;100.00;94859.88;4994887;28;20320;-89
2021/05/27 13:04:38;;;;;;;3.47;2.30;;;;;;;21.82;100.00;94879.34;4994856;28;20246;-90
2021/05/27 13:07:07;;;;;;;4.63;2.43;;;;;;;21.16;100.00;94907.59;4994936;28;20628;-91
2021/05/27 13:09:45;;;;;;;2.63;2.00;;;;;;;21.06;100.00;94892.31;4997436;28;20204;-92
2021/05/27 13:12:15;;;;;;;3.83;2.67;;;;;;;21.18;100.00;94878.75;4994873;28;20231;-90
2021/05/27 13:14:43;;;;;;;2.63;2.43;;;;;;;20.97;100.00;94878.63;4995276;28;20623;-89
2021/05/27 13:17:15;;;;;;;2.57;2.37;;;;;;;20.79;100.00;94865.72;4994724;28;20216;-90
2021/05/27 13:19:44;;;;;;;2.80;2.50;;;;;;;20.73;100.00;94856.06;4995012;28;20200;-90
2021/05/27 13:22:26;;;;;;;4.03;2.60;;;;;;;20.65;100.00;94834.13;4994444;28;20712;-90
2021/05/27 13:24:58;;;;;;;3.63;2.73;;;;;;;20.18;100.00;94836.63;4994724;28;20196;-91
2021/05/27 13:27:31;;;;;;;3.60;3.00;;;;;;;19.97;100.00;94834.84;4994463;28;20204;-94
2021/05/27 13:30:00;;;;;;;5.50;2.90;;;;;;;20.07;100.00;94819.75;4994561;28;20211;-92
2021/05/27 13:32:29;;;;;;;3.00;2.70;;;;;;;20.04;100.00;94812.25;4994358;28;20207;-90